sensor_id;sensor_type;location;lat;lon;timestamp;temperature;humidity
42227;DHT22;27892;52.378;13.122;2023-03-17T00:00:20;8.10;42.90
42227;DHT22;27892;52.378;13.122;2023-03-17T00:02:47;8.10;43.10
42227;DHT22;27892;52.378;13.122;2023-03-17T00:07:46;7.90;43.60
42227;DHT22;27892;52.378;13.122;2023-03-17T00:10:20;8.00;43.30
42227;DHT22;27892;52.378;13.122;2023-03-17T00:12:48;8.00;43.20
42227;DHT22;27892;52.378;13.122;2023-03-17T00:15:15;8.00;43.50
42227;DHT22;27892;52.378;13.122;2023-03-17T00:17:42;7.90;43.70
42227;DHT22;27892;52.378;13.122;2023-03-17T00:20:16;7.90;43.60
42227;DHT22;27892;52.378;13.122;2023-03-17T00:22:43;8.00;43.70
42227;DHT22;27892;52.378;13.122;2023-03-17T00:25:22;7.90;43.80
42227;DHT22;27892;52.378;13.122;2023-03-17T00:27:48;8.00;43.50
42227;DHT22;27892;52.378;13.122;2023-03-17T00:30:14;8.00;43.80
42227;DHT22;27892;52.378;13.122;2023-03-17T00:32:40;8.00;43.60
42227;DHT22;27892;52.378;13.122;2023-03-17T00:35:26;7.90;43.60
42227;DHT22;27892;52.378;13.122;2023-03-17T00:37:55;8.00;43.80
42227;DHT22;27892;52.378;13.122;2023-03-17T00:40:24;8.10;43.60
42227;DHT22;27892;52.378;13.122;2023-03-17T00:42:51;8.00;43.70
42227;DHT22;27892;52.378;13.122;2023-03-17T00:45:19;8.10;43.60
42227;DHT22;27892;52.378;13.122;2023-03-17T00:47:46;8.00;43.60
42227;DHT22;27892;52.378;13.122;2023-03-17T00:50:16;8.00;43.80
42227;DHT22;27892;52.378;13.122;2023-03-17T00:52:43;7.90;43.80
42227;DHT22;27892;52.378;13.122;2023-03-17T00:55:10;7.90;44.00
42227;DHT22;27892;52.378;13.122;2023-03-17T00:57:37;8.00;43.90
42227;DHT22;27892;52.378;13.122;2023-03-17T01:00:05;7.80;44.20
42227;DHT22;27892;52.378;13.122;2023-03-17T01:02:31;7.80;44.10
42227;DHT22;27892;52.378;13.122;2023-03-17T01:04:57;7.80;44.20
42227;DHT22;27892;52.378;13.122;2023-03-17T01:07:26;8.00;44.10
42227;DHT22;27892;52.378;13.122;2023-03-17T01:09:53;8.00;43.90
42227;DHT22;27892;52.378;13.122;2023-03-17T01:12:19;7.80;44.20
42227;DHT22;27892;52.378;13.122;2023-03-17T01:14:45;7.80;44.30
42227;DHT22;27892;52.378;13.122;2023-03-17T01:17:15;7.80;44.20
42227;DHT22;27892;52.378;13.122;2023-03-17T01:19:43;7.80;44.10
42227;DHT22;27892;52.378;13.122;2023-03-17T01:22:10;8.00;44.00
42227;DHT22;27892;52.378;13.122;2023-03-17T01:24:35;7.80;44.10
42227;DHT22;27892;52.378;13.122;2023-03-17T01:27:02;7.60;44.30
42227;DHT22;27892;52.378;13.122;2023-03-17T01:29:29;7.60;44.50
42227;DHT22;27892;52.378;13.122;2023-03-17T01:31:55;7.70;44.40
42227;DHT22;27892;52.378;13.122;2023-03-17T01:34:20;7.90;44.20
42227;DHT22;27892;52.378;13.122;2023-03-17T01:36:46;7.90;44.00
42227;DHT22;27892;52.378;13.122;2023-03-17T01:39:13;7.70;44.20
42227;DHT22;27892;52.378;13.122;2023-03-17T01:41:39;7.60;44.20
42227;DHT22;27892;52.378;13.122;2023-03-17T01:44:04;7.60;44.40
42227;DHT22;27892;52.378;13.122;2023-03-17T01:46:33;7.60;44.40
42227;DHT22;27892;52.378;13.122;2023-03-17T01:54:04;7.40;44.90
42227;DHT22;27892;52.378;13.122;2023-03-17T01:56:31;7.50;44.90
42227;DHT22;27892;52.378;13.122;2023-03-17T01:59:00;7.60;44.60
42227;DHT22;27892;52.378;13.122;2023-03-17T02:01:31;7.60;44.50
42227;DHT22;27892;52.378;13.122;2023-03-17T02:03:58;7.60;44.50
42227;DHT22;27892;52.378;13.122;2023-03-17T02:06:25;7.60;44.50
42227;DHT22;27892;52.378;13.122;2023-03-17T02:08:51;7.60;44.50
42227;DHT22;27892;52.378;13.122;2023-03-17T02:11:17;7.30;44.80
42227;DHT22;27892;52.378;13.122;2023-03-17T02:13:43;7.40;45.00
42227;DHT22;27892;52.378;13.122;2023-03-17T02:16:14;7.40;45.10
42227;DHT22;27892;52.378;13.122;2023-03-17T02:18:40;7.30;45.00
42227;DHT22;27892;52.378;13.122;2023-03-17T02:24:09;7.60;44.70
42227;DHT22;27892;52.378;13.122;2023-03-17T02:26:37;7.50;44.60
42227;DHT22;27892;52.378;13.122;2023-03-17T02:29:03;7.60;44.70
42227;DHT22;27892;52.378;13.122;2023-03-17T02:31:30;7.60;44.60
42227;DHT22;27892;52.378;13.122;2023-03-17T02:33:56;7.30;45.00
42227;DHT22;27892;52.378;13.122;2023-03-17T02:36:22;7.40;44.90
42227;DHT22;27892;52.378;13.122;2023-03-17T02:38:48;7.40;44.80
42227;DHT22;27892;52.378;13.122;2023-03-17T02:41:13;7.40;45.00
42227;DHT22;27892;52.378;13.122;2023-03-17T02:43:39;7.50;44.70
42227;DHT22;27892;52.378;13.122;2023-03-17T02:46:05;7.40;44.70
42227;DHT22;27892;52.378;13.122;2023-03-17T02:48:32;7.40;44.90
42227;DHT22;27892;52.378;13.122;2023-03-17T02:50:59;7.50;44.90
42227;DHT22;27892;52.378;13.122;2023-03-17T02:53:25;7.60;44.80
42227;DHT22;27892;52.378;13.122;2023-03-17T02:55:51;7.60;44.60
42227;DHT22;27892;52.378;13.122;2023-03-17T02:58:17;7.50;44.80
42227;DHT22;27892;52.378;13.122;2023-03-17T03:00:42;7.50;44.90
42227;DHT22;27892;52.378;13.122;2023-03-17T03:03:08;7.60;44.70
42227;DHT22;27892;52.378;13.122;2023-03-17T03:05:34;7.70;44.60
42227;DHT22;27892;52.378;13.122;2023-03-17T03:08:00;7.70;44.60
42227;DHT22;27892;52.378;13.122;2023-03-17T03:10:26;7.80;44.50
42227;DHT22;27892;52.378;13.122;2023-03-17T03:13:10;7.60;44.60
42227;DHT22;27892;52.378;13.122;2023-03-17T03:15:55;7.70;44.70
42227;DHT22;27892;52.378;13.122;2023-03-17T03:18:39;7.70;44.60
42227;DHT22;27892;52.378;13.122;2023-03-17T03:21:23;7.70;44.50
42227;DHT22;27892;52.378;13.122;2023-03-17T03:24:08;7.80;44.50
42227;DHT22;27892;52.378;13.122;2023-03-17T03:26:35;7.70;44.60
42227;DHT22;27892;52.378;13.122;2023-03-17T03:29:02;7.50;45.40
42227;DHT22;27892;52.378;13.122;2023-03-17T03:31:28;7.60;44.80
42227;DHT22;27892;52.378;13.122;2023-03-17T03:33:54;7.60;44.70
42227;DHT22;27892;52.378;13.122;2023-03-17T03:36:20;7.70;44.50
42227;DHT22;27892;52.378;13.122;2023-03-17T03:38:46;7.70;44.50
42227;DHT22;27892;52.378;13.122;2023-03-17T03:41:12;7.70;44.50
42227;DHT22;27892;52.378;13.122;2023-03-17T03:43:39;7.70;44.50
42227;DHT22;27892;52.378;13.122;2023-03-17T03:46:05;7.70;44.60
42227;DHT22;27892;52.378;13.122;2023-03-17T03:48:31;7.70;44.60
42227;DHT22;27892;52.378;13.122;2023-03-17T03:50:58;7.70;44.50
42227;DHT22;27892;52.378;13.122;2023-03-17T03:53:26;7.70;44.60
42227;DHT22;27892;52.378;13.122;2023-03-17T03:55:52;7.60;44.60
42227;DHT22;27892;52.378;13.122;2023-03-17T03:58:18;7.60;44.60
42227;DHT22;27892;52.378;13.122;2023-03-17T04:00:44;7.60;44.80
42227;DHT22;27892;52.378;13.122;2023-03-17T04:03:11;7.60;44.90
42227;DHT22;27892;52.378;13.122;2023-03-17T04:05:37;7.50;44.90
42227;DHT22;27892;52.378;13.122;2023-03-17T04:08:03;7.60;44.90
42227;DHT22;27892;52.378;13.122;2023-03-17T04:10:28;7.50;44.90
42227;DHT22;27892;52.378;13.122;2023-03-17T04:12:54;7.50;44.90
42227;DHT22;27892;52.378;13.122;2023-03-17T04:15:20;7.40;45.10
42227;DHT22;27892;52.378;13.122;2023-03-17T04:17:46;7.40;45.10
42227;DHT22;27892;52.378;13.122;2023-03-17T04:20:13;7.30;45.20
42227;DHT22;27892;52.378;13.122;2023-03-17T04:22:42;7.50;45.30
42227;DHT22;27892;52.378;13.122;2023-03-17T04:25:10;7.30;45.10
42227;DHT22;27892;52.378;13.122;2023-03-17T04:27:38;7.40;45.30
42227;DHT22;27892;52.378;13.122;2023-03-17T04:30:04;7.50;45.20
42227;DHT22;27892;52.378;13.122;2023-03-17T04:32:30;7.60;45.00
42227;DHT22;27892;52.378;13.122;2023-03-17T04:34:56;7.40;45.10
42227;DHT22;27892;52.378;13.122;2023-03-17T04:37:23;7.30;45.20
42227;DHT22;27892;52.378;13.122;2023-03-17T04:39:49;7.30;45.20
42227;DHT22;27892;52.378;13.122;2023-03-17T04:42:15;7.30;45.30
42227;DHT22;27892;52.378;13.122;2023-03-17T04:44:42;7.30;45.20
42227;DHT22;27892;52.378;13.122;2023-03-17T04:47:08;7.20;45.20
42227;DHT22;27892;52.378;13.122;2023-03-17T04:49:33;7.30;45.40
42227;DHT22;27892;52.378;13.122;2023-03-17T04:51:59;7.30;45.30
42227;DHT22;27892;52.378;13.122;2023-03-17T04:54:25;7.30;45.40
42227;DHT22;27892;52.378;13.122;2023-03-17T04:56:50;7.30;45.30
42227;DHT22;27892;52.378;13.122;2023-03-17T04:59:16;7.10;45.20
42227;DHT22;27892;52.378;13.122;2023-03-17T05:01:42;7.20;45.30
42227;DHT22;27892;52.378;13.122;2023-03-17T05:04:08;7.20;45.10
42227;DHT22;27892;52.378;13.122;2023-03-17T05:06:34;7.30;45.10
42227;DHT22;27892;52.378;13.122;2023-03-17T05:09:00;7.30;45.00
42227;DHT22;27892;52.378;13.122;2023-03-17T05:11:26;7.20;45.10
42227;DHT22;27892;52.378;13.122;2023-03-17T05:13:51;7.30;44.90
42227;DHT22;27892;52.378;13.122;2023-03-17T05:16:17;7.50;44.70
42227;DHT22;27892;52.378;13.122;2023-03-17T05:18:43;7.60;44.50
42227;DHT22;27892;52.378;13.122;2023-03-17T05:21:09;7.40;44.40
42227;DHT22;27892;52.378;13.122;2023-03-17T05:23:35;7.50;44.60
42227;DHT22;27892;52.378;13.122;2023-03-17T05:26:01;7.60;44.30
42227;DHT22;27892;52.378;13.122;2023-03-17T05:28:26;7.50;44.20
42227;DHT22;27892;52.378;13.122;2023-03-17T05:30:53;7.50;44.20
42227;DHT22;27892;52.378;13.122;2023-03-17T05:33:19;7.50;44.30
42227;DHT22;27892;52.378;13.122;2023-03-17T05:35:46;7.60;44.20
42227;DHT22;27892;52.378;13.122;2023-03-17T05:38:13;7.70;44.10
42227;DHT22;27892;52.378;13.122;2023-03-17T05:40:39;7.60;44.00
42227;DHT22;27892;52.378;13.122;2023-03-17T05:43:05;7.50;44.10
42227;DHT22;27892;52.378;13.122;2023-03-17T05:45:31;7.30;44.20
42227;DHT22;27892;52.378;13.122;2023-03-17T05:47:57;7.40;44.50
42227;DHT22;27892;52.378;13.122;2023-03-17T05:50:24;7.20;44.50
42227;DHT22;27892;52.378;13.122;2023-03-17T05:52:50;7.30;44.70
42227;DHT22;27892;52.378;13.122;2023-03-17T05:55:17;7.10;44.70
42227;DHT22;27892;52.378;13.122;2023-03-17T05:57:43;7.20;45.20
42227;DHT22;27892;52.378;13.122;2023-03-17T06:00:10;7.10;44.50
42227;DHT22;27892;52.378;13.122;2023-03-17T06:02:37;7.10;44.90
42227;DHT22;27892;52.378;13.122;2023-03-17T06:05:03;7.10;44.80
42227;DHT22;27892;52.378;13.122;2023-03-17T06:07:29;7.20;44.50
42227;DHT22;27892;52.378;13.122;2023-03-17T06:09:55;7.30;44.60
42227;DHT22;27892;52.378;13.122;2023-03-17T06:12:20;7.10;44.40
42227;DHT22;27892;52.378;13.122;2023-03-17T06:14:46;7.10;44.80
42227;DHT22;27892;52.378;13.122;2023-03-17T06:17:12;7.30;44.30
42227;DHT22;27892;52.378;13.122;2023-03-17T06:19:39;7.40;44.00
42227;DHT22;27892;52.378;13.122;2023-03-17T06:22:05;7.40;44.10
42227;DHT22;27892;52.378;13.122;2023-03-17T06:24:32;7.40;44.10
42227;DHT22;27892;52.378;13.122;2023-03-17T06:26:58;7.60;43.90
42227;DHT22;27892;52.378;13.122;2023-03-17T06:29:23;7.40;43.70
42227;DHT22;27892;52.378;13.122;2023-03-17T06:31:49;7.40;43.80
42227;DHT22;27892;52.378;13.122;2023-03-17T06:34:19;7.50;43.80
42227;DHT22;27892;52.378;13.122;2023-03-17T06:36:46;7.80;43.50
42227;DHT22;27892;52.378;13.122;2023-03-17T06:39:12;7.80;43.00
42227;DHT22;27892;52.378;13.122;2023-03-17T06:41:38;8.10;43.20
42227;DHT22;27892;52.378;13.122;2023-03-17T06:44:04;8.30;42.50
42227;DHT22;27892;52.378;13.122;2023-03-17T06:46:31;8.30;42.10
42227;DHT22;27892;52.378;13.122;2023-03-17T06:48:58;8.20;41.80
42227;DHT22;27892;52.378;13.122;2023-03-17T06:51:23;8.30;41.60
42227;DHT22;27892;52.378;13.122;2023-03-17T06:53:50;8.40;42.10
42227;DHT22;27892;52.378;13.122;2023-03-17T06:56:15;8.80;41.20
42227;DHT22;27892;52.378;13.122;2023-03-17T06:58:41;8.90;40.60
42227;DHT22;27892;52.378;13.122;2023-03-17T07:01:07;9.20;40.40
42227;DHT22;27892;52.378;13.122;2023-03-17T07:03:33;9.00;40.20
42227;DHT22;27892;52.378;13.122;2023-03-17T07:06:00;9.00;40.00
42227;DHT22;27892;52.378;13.122;2023-03-17T07:08:26;8.80;40.40
42227;DHT22;27892;52.378;13.122;2023-03-17T07:10:55;8.60;40.20
42227;DHT22;27892;52.378;13.122;2023-03-17T07:13:22;8.90;40.20
42227;DHT22;27892;52.378;13.122;2023-03-17T07:15:49;9.60;40.10
42227;DHT22;27892;52.378;13.122;2023-03-17T07:18:14;10.40;38.20
42227;DHT22;27892;52.378;13.122;2023-03-17T07:20:41;11.20;35.80
42227;DHT22;27892;52.378;13.122;2023-03-17T07:23:12;10.60;35.40
42227;DHT22;27892;52.378;13.122;2023-03-17T07:25:39;10.70;36.20
42227;DHT22;27892;52.378;13.122;2023-03-17T07:28:08;10.60;35.50
42227;DHT22;27892;52.378;13.122;2023-03-17T07:30:34;10.60;34.80
42227;DHT22;27892;52.378;13.122;2023-03-17T07:33:00;10.80;35.60
42227;DHT22;27892;52.378;13.122;2023-03-17T07:35:25;10.40;35.20
42227;DHT22;27892;52.378;13.122;2023-03-17T07:37:52;10.60;35.60
42227;DHT22;27892;52.378;13.122;2023-03-17T07:40:19;10.90;35.60
42227;DHT22;27892;52.378;13.122;2023-03-17T07:42:45;11.00;35.10
42227;DHT22;27892;52.378;13.122;2023-03-17T07:45:11;11.10;35.30
42227;DHT22;27892;52.378;13.122;2023-03-17T07:47:37;11.20;34.90
42227;DHT22;27892;52.378;13.122;2023-03-17T07:50:04;11.40;35.20
42227;DHT22;27892;52.378;13.122;2023-03-17T07:52:30;11.80;35.30
42227;DHT22;27892;52.378;13.122;2023-03-17T07:54:56;12.60;34.10
42227;DHT22;27892;52.378;13.122;2023-03-17T07:57:23;14.00;33.50
42227;DHT22;27892;52.378;13.122;2023-03-17T07:59:49;15.10;29.90
42227;DHT22;27892;52.378;13.122;2023-03-17T08:02:16;15.10;29.30
42227;DHT22;27892;52.378;13.122;2023-03-17T08:04:43;14.00;28.90
42227;DHT22;27892;52.378;13.122;2023-03-17T08:07:08;13.40;30.90
42227;DHT22;27892;52.378;13.122;2023-03-17T08:09:35;13.50;31.50
42227;DHT22;27892;52.378;13.122;2023-03-17T08:12:02;13.20;30.70
42227;DHT22;27892;52.378;13.122;2023-03-17T08:14:28;13.60;31.60
42227;DHT22;27892;52.378;13.122;2023-03-17T08:16:54;14.10;30.90
42227;DHT22;27892;52.378;13.122;2023-03-17T08:19:22;14.80;30.90
42227;DHT22;27892;52.378;13.122;2023-03-17T08:21:47;15.80;29.20
42227;DHT22;27892;52.378;13.122;2023-03-17T08:24:13;16.70;28.30
42227;DHT22;27892;52.378;13.122;2023-03-17T08:26:39;18.30;26.70
42227;DHT22;27892;52.378;13.122;2023-03-17T08:29:04;18.40;25.90
42227;DHT22;27892;52.378;13.122;2023-03-17T08:31:30;17.50;25.00
42227;DHT22;27892;52.378;13.122;2023-03-17T08:33:58;16.30;26.80
42227;DHT22;27892;52.378;13.122;2023-03-17T08:36:23;15.60;27.80
42227;DHT22;27892;52.378;13.122;2023-03-17T08:38:50;14.70;28.40
42227;DHT22;27892;52.378;13.122;2023-03-17T08:41:19;14.40;28.70
42227;DHT22;27892;52.378;13.122;2023-03-17T08:43:45;14.10;29.60
42227;DHT22;27892;52.378;13.122;2023-03-17T08:46:26;14.00;29.70
42227;DHT22;27892;52.378;13.122;2023-03-17T08:48:53;13.90;29.50
42227;DHT22;27892;52.378;13.122;2023-03-17T08:51:21;14.30;30.00
42227;DHT22;27892;52.378;13.122;2023-03-17T08:53:47;14.40;29.60
42227;DHT22;27892;52.378;13.122;2023-03-17T08:56:13;14.50;29.40
42227;DHT22;27892;52.378;13.122;2023-03-17T08:58:39;14.50;29.90
42227;DHT22;27892;52.378;13.122;2023-03-17T09:01:06;14.30;29.90
42227;DHT22;27892;52.378;13.122;2023-03-17T09:03:34;14.00;30.40
42227;DHT22;27892;52.378;13.122;2023-03-17T09:06:00;13.90;30.80
42227;DHT22;27892;52.378;13.122;2023-03-17T09:08:28;14.30;31.10
42227;DHT22;27892;52.378;13.122;2023-03-17T09:10:54;14.90;30.00
42227;DHT22;27892;52.378;13.122;2023-03-17T09:13:21;15.50;30.20
42227;DHT22;27892;52.378;13.122;2023-03-17T09:15:47;16.00;29.60
42227;DHT22;27892;52.378;13.122;2023-03-17T09:18:13;16.80;29.10
42227;DHT22;27892;52.378;13.122;2023-03-17T09:20:39;17.40;29.20
42227;DHT22;27892;52.378;13.122;2023-03-17T09:23:09;17.80;28.20
42227;DHT22;27892;52.378;13.122;2023-03-17T09:25:37;17.70;27.10
42227;DHT22;27892;52.378;13.122;2023-03-17T09:28:04;17.30;27.00
42227;DHT22;27892;52.378;13.122;2023-03-17T09:30:31;17.30;26.90
42227;DHT22;27892;52.378;13.122;2023-03-17T09:32:57;17.30;27.30
42227;DHT22;27892;52.378;13.122;2023-03-17T09:35:23;17.20;27.10
42227;DHT22;27892;52.378;13.122;2023-03-17T09:37:50;17.50;27.00
42227;DHT22;27892;52.378;13.122;2023-03-17T09:40:18;17.20;26.00
42227;DHT22;27892;52.378;13.122;2023-03-17T09:45:38;16.80;26.20
42227;DHT22;27892;52.378;13.122;2023-03-17T09:50:47;16.30;26.40
42227;DHT22;27892;52.378;13.122;2023-03-17T09:53:19;16.30;26.50
42227;DHT22;27892;52.378;13.122;2023-03-17T09:55:49;16.00;26.50
42227;DHT22;27892;52.378;13.122;2023-03-17T09:58:20;16.30;27.00
42227;DHT22;27892;52.378;13.122;2023-03-17T10:00:50;16.50;26.30
42227;DHT22;27892;52.378;13.122;2023-03-17T10:03:16;16.40;26.80
42227;DHT22;27892;52.378;13.122;2023-03-17T10:05:42;16.50;26.70
42227;DHT22;27892;52.378;13.122;2023-03-17T10:08:32;16.70;26.40
42227;DHT22;27892;52.378;13.122;2023-03-17T10:11:36;16.60;26.20
42227;DHT22;27892;52.378;13.122;2023-03-17T10:14:07;16.20;26.00
42227;DHT22;27892;52.378;13.122;2023-03-17T10:19:39;16.20;26.60
42227;DHT22;27892;52.378;13.122;2023-03-17T10:22:16;16.30;27.00
42227;DHT22;27892;52.378;13.122;2023-03-17T10:24:51;16.50;26.70
42227;DHT22;27892;52.378;13.122;2023-03-17T10:27:19;16.80;26.80
42227;DHT22;27892;52.378;13.122;2023-03-17T10:29:45;17.00;27.20
42227;DHT22;27892;52.378;13.122;2023-03-17T10:32:12;17.00;26.60
42227;DHT22;27892;52.378;13.122;2023-03-17T10:34:39;17.80;26.80
42227;DHT22;27892;52.378;13.122;2023-03-17T10:37:23;17.70;25.80
42227;DHT22;27892;52.378;13.122;2023-03-17T10:39:52;17.50;26.40
42227;DHT22;27892;52.378;13.122;2023-03-17T10:42:25;18.20;26.00
42227;DHT22;27892;52.378;13.122;2023-03-17T10:47:39;19.10;25.20
42227;DHT22;27892;52.378;13.122;2023-03-17T10:50:21;19.10;24.30
42227;DHT22;27892;52.378;13.122;2023-03-17T10:53:13;19.30;24.00
42227;DHT22;27892;52.378;13.122;2023-03-17T10:55:50;18.70;23.90
42227;DHT22;27892;52.378;13.122;2023-03-17T10:58:17;18.70;24.90
42227;DHT22;27892;52.378;13.122;2023-03-17T11:00:56;19.00;24.20
42227;DHT22;27892;52.378;13.122;2023-03-17T11:03:25;19.90;24.40
42227;DHT22;27892;52.378;13.122;2023-03-17T11:06:00;20.00;24.30
42227;DHT22;27892;52.378;13.122;2023-03-17T11:08:45;19.70;23.60
42227;DHT22;27892;52.378;13.122;2023-03-17T11:11:31;20.20;23.20
42227;DHT22;27892;52.378;13.122;2023-03-17T11:14:08;20.30;23.00
42227;DHT22;27892;52.378;13.122;2023-03-17T11:16:37;20.00;23.70
42227;DHT22;27892;52.378;13.122;2023-03-17T11:19:08;19.80;23.50
42227;DHT22;27892;52.378;13.122;2023-03-17T11:25:08;19.30;24.20
42227;DHT22;27892;52.378;13.122;2023-03-17T11:27:46;19.60;24.30
42227;DHT22;27892;52.378;13.122;2023-03-17T11:39:18;20.20;23.80
42227;DHT22;27892;52.378;13.122;2023-03-17T11:50:39;20.30;24.10
42227;DHT22;27892;52.378;13.122;2023-03-17T11:55:59;20.10;23.90
42227;DHT22;27892;52.378;13.122;2023-03-17T11:58:33;19.90;24.90
42227;DHT22;27892;52.378;13.122;2023-03-17T12:01:00;20.20;24.60
42227;DHT22;27892;52.378;13.122;2023-03-17T12:03:43;20.40;24.10
42227;DHT22;27892;52.378;13.122;2023-03-17T12:06:18;20.60;24.20
42227;DHT22;27892;52.378;13.122;2023-03-17T12:11:27;20.70;24.30
42227;DHT22;27892;52.378;13.122;2023-03-17T12:14:38;20.90;25.20
42227;DHT22;27892;52.378;13.122;2023-03-17T12:17:09;21.10;25.00
42227;DHT22;27892;52.378;13.122;2023-03-17T12:22:57;20.90;25.30
42227;DHT22;27892;52.378;13.122;2023-03-17T12:25:33;20.60;26.00
42227;DHT22;27892;52.378;13.122;2023-03-17T12:28:13;20.50;25.60
42227;DHT22;27892;52.378;13.122;2023-03-17T12:30:49;20.70;26.00
42227;DHT22;27892;52.378;13.122;2023-03-17T12:33:38;20.50;26.80
42227;DHT22;27892;52.378;13.122;2023-03-17T12:36:06;20.30;25.30
42227;DHT22;27892;52.378;13.122;2023-03-17T12:38:55;19.80;26.10
42227;DHT22;27892;52.378;13.122;2023-03-17T12:44:26;20.00;26.40
42227;DHT22;27892;52.378;13.122;2023-03-17T12:49:51;19.30;27.10
42227;DHT22;27892;52.378;13.122;2023-03-17T12:55:31;19.80;26.90
42227;DHT22;27892;52.378;13.122;2023-03-17T12:58:05;19.70;26.40
42227;DHT22;27892;52.378;13.122;2023-03-17T13:01:04;19.70;27.30
42227;DHT22;27892;52.378;13.122;2023-03-17T13:03:32;20.00;26.90
42227;DHT22;27892;52.378;13.122;2023-03-17T13:06:04;20.20;26.80
42227;DHT22;27892;52.378;13.122;2023-03-17T13:08:40;19.60;26.40
42227;DHT22;27892;52.378;13.122;2023-03-17T13:16:40;19.10;27.40
42227;DHT22;27892;52.378;13.122;2023-03-17T13:24:47;19.80;28.30
42227;DHT22;27892;52.378;13.122;2023-03-17T13:44:01;19.70;28.00
42227;DHT22;27892;52.378;13.122;2023-03-17T13:49:21;20.00;28.20
42227;DHT22;27892;52.378;13.122;2023-03-17T13:52:38;20.10;27.30
42227;DHT22;27892;52.378;13.122;2023-03-17T13:54:49;20.10;27.00
42227;DHT22;27892;52.378;13.122;2023-03-17T14:02:52;19.80;27.10
42227;DHT22;27892;52.378;13.122;2023-03-17T14:05:29;19.20;27.40
42227;DHT22;27892;52.378;13.122;2023-03-17T14:08:01;19.20;27.70
42227;DHT22;27892;52.378;13.122;2023-03-17T14:10:30;19.20;27.70
42227;DHT22;27892;52.378;13.122;2023-03-17T14:13:19;19.10;28.10
42227;DHT22;27892;52.378;13.122;2023-03-17T14:18:39;18.80;28.40
42227;DHT22;27892;52.378;13.122;2023-03-17T14:21:22;18.60;28.30
42227;DHT22;27892;52.378;13.122;2023-03-17T14:23:56;18.60;28.60
42227;DHT22;27892;52.378;13.122;2023-03-17T14:26:23;18.60;28.40
42227;DHT22;27892;52.378;13.122;2023-03-17T14:28:50;18.80;28.70
42227;DHT22;27892;52.378;13.122;2023-03-17T14:31:22;18.30;28.10
42227;DHT22;27892;52.378;13.122;2023-03-17T14:33:51;18.30;28.90
42227;DHT22;27892;52.378;13.122;2023-03-17T14:36:19;18.30;28.70
42227;DHT22;27892;52.378;13.122;2023-03-17T14:38:48;18.50;28.80
42227;DHT22;27892;52.378;13.122;2023-03-17T14:43:41;18.40;28.70
42227;DHT22;27892;52.378;13.122;2023-03-17T14:46:30;18.30;28.80
42227;DHT22;27892;52.378;13.122;2023-03-17T14:49:03;18.20;28.80
42227;DHT22;27892;52.378;13.122;2023-03-17T14:51:37;18.10;28.70
42227;DHT22;27892;52.378;13.122;2023-03-17T14:54:17;18.30;29.10
42227;DHT22;27892;52.378;13.122;2023-03-17T14:56:51;18.30;29.00
42227;DHT22;27892;52.378;13.122;2023-03-17T14:59:33;18.30;29.10
42227;DHT22;27892;52.378;13.122;2023-03-17T15:02:02;18.00;29.00
42227;DHT22;27892;52.378;13.122;2023-03-17T15:04:33;17.90;29.10
42227;DHT22;27892;52.378;13.122;2023-03-17T15:07:34;17.90;29.20
42227;DHT22;27892;52.378;13.122;2023-03-17T15:10:01;18.10;29.40
42227;DHT22;27892;52.378;13.122;2023-03-17T15:12:27;18.10;29.30
42227;DHT22;27892;52.378;13.122;2023-03-17T15:14:59;18.20;29.10
42227;DHT22;27892;52.378;13.122;2023-03-17T15:17:27;18.30;29.20
42227;DHT22;27892;52.378;13.122;2023-03-17T15:19:59;18.30;29.30
42227;DHT22;27892;52.378;13.122;2023-03-17T15:22:29;18.10;29.00
42227;DHT22;27892;52.378;13.122;2023-03-17T15:27:46;17.80;29.00
42227;DHT22;27892;52.378;13.122;2023-03-17T15:30:14;17.80;29.10
42227;DHT22;27892;52.378;13.122;2023-03-17T15:32:40;17.80;29.00
42227;DHT22;27892;52.378;13.122;2023-03-17T15:35:06;17.80;29.20
42227;DHT22;27892;52.378;13.122;2023-03-17T15:37:33;17.80;29.10
42227;DHT22;27892;52.378;13.122;2023-03-17T15:40:00;17.70;29.20
42227;DHT22;27892;52.378;13.122;2023-03-17T15:42:31;17.70;29.20
42227;DHT22;27892;52.378;13.122;2023-03-17T15:44:58;17.70;29.00
42227;DHT22;27892;52.378;13.122;2023-03-17T15:47:28;17.80;29.10
42227;DHT22;27892;52.378;13.122;2023-03-17T15:49:58;17.60;29.30
42227;DHT22;27892;52.378;13.122;2023-03-17T15:52:26;17.60;29.40
42227;DHT22;27892;52.378;13.122;2023-03-17T15:54:53;17.60;29.50
42227;DHT22;27892;52.378;13.122;2023-03-17T15:57:19;17.60;29.70
42227;DHT22;27892;52.378;13.122;2023-03-17T15:59:45;17.40;29.80
42227;DHT22;27892;52.378;13.122;2023-03-17T16:02:30;17.20;29.90
42227;DHT22;27892;52.378;13.122;2023-03-17T16:04:59;17.20;30.10
42227;DHT22;27892;52.378;13.122;2023-03-17T16:07:28;17.30;30.20
42227;DHT22;27892;52.378;13.122;2023-03-17T16:09:56;17.30;30.30
42227;DHT22;27892;52.378;13.122;2023-03-17T16:12:22;17.30;30.30
42227;DHT22;27892;52.378;13.122;2023-03-17T16:14:48;17.30;30.70
42227;DHT22;27892;52.378;13.122;2023-03-17T16:17:22;17.30;30.60
42227;DHT22;27892;52.378;13.122;2023-03-17T16:19:49;17.20;30.60
42227;DHT22;27892;52.378;13.122;2023-03-17T16:22:35;17.30;31.30
42227;DHT22;27892;52.378;13.122;2023-03-17T16:25:05;17.20;30.70
42227;DHT22;27892;52.378;13.122;2023-03-17T16:27:31;17.10;30.80
42227;DHT22;27892;52.378;13.122;2023-03-17T16:29:56;17.20;30.80
42227;DHT22;27892;52.378;13.122;2023-03-17T16:32:22;17.20;30.90
42227;DHT22;27892;52.378;13.122;2023-03-17T16:34:48;17.20;30.80
42227;DHT22;27892;52.378;13.122;2023-03-17T16:37:14;17.10;30.70
42227;DHT22;27892;52.378;13.122;2023-03-17T16:39:40;17.10;30.80
42227;DHT22;27892;52.378;13.122;2023-03-17T16:42:26;16.80;30.80
42227;DHT22;27892;52.378;13.122;2023-03-17T16:44:52;16.90;31.00
42227;DHT22;27892;52.378;13.122;2023-03-17T16:47:21;16.90;31.00
42227;DHT22;27892;52.378;13.122;2023-03-17T16:49:47;16.80;30.90
42227;DHT22;27892;52.378;13.122;2023-03-17T16:52:12;16.80;31.10
42227;DHT22;27892;52.378;13.122;2023-03-17T16:54:38;16.60;31.10
42227;DHT22;27892;52.378;13.122;2023-03-17T16:57:04;16.50;31.10
42227;DHT22;27892;52.378;13.122;2023-03-17T16:59:30;16.40;31.20
42227;DHT22;27892;52.378;13.122;2023-03-17T17:01:56;16.40;31.20
42227;DHT22;27892;52.378;13.122;2023-03-17T17:04:22;16.30;31.20
42227;DHT22;27892;52.378;13.122;2023-03-17T17:06:51;16.20;31.30
42227;DHT22;27892;52.378;13.122;2023-03-17T17:09:17;16.30;31.40
42227;DHT22;27892;52.378;13.122;2023-03-17T17:11:43;16.30;31.10
42227;DHT22;27892;52.378;13.122;2023-03-17T17:14:08;16.10;31.20
42227;DHT22;27892;52.378;13.122;2023-03-17T17:16:35;16.20;31.40
42227;DHT22;27892;52.378;13.122;2023-03-17T17:19:13;16.10;31.50